createdAt,value
2018-04-22T00:00:11.380Z,1013.04
2018-04-22T00:01:11.400Z,1013.02
2018-04-22T00:02:11.420Z,1013.02
2018-04-22T00:03:11.433Z,1013.03
2018-04-22T00:04:11.454Z,1013.02
2018-04-22T00:05:11.466Z,1012.98
2018-04-22T00:06:11.489Z,1013.00
2018-04-22T00:07:11.505Z,1012.99
2018-04-22T00:08:11.522Z,1012.92
2018-04-22T00:09:11.536Z,1012.97
2018-04-22T00:10:11.557Z,1012.98
2018-04-22T00:11:11.571Z,1012.97
2018-04-22T00:12:11.597Z,1012.98
2018-04-22T00:13:11.797Z,1013.00
2018-04-22T00:15:11.659Z,1013.02
2018-04-22T00:16:11.741Z,1012.99
2018-04-22T00:17:11.709Z,1013.01
2018-04-22T00:18:11.705Z,1012.97
2018-04-22T00:19:11.783Z,1012.97
2018-04-22T00:20:11.731Z,1012.97
2018-04-22T00:21:11.825Z,1013.00
2018-04-22T00:22:11.772Z,1012.99
2018-04-22T00:23:11.783Z,1012.99
2018-04-22T00:24:11.797Z,1012.96
2018-04-22T00:25:11.816Z,1012.94
2018-04-22T00:26:11.832Z,1012.94
2018-04-22T00:27:11.867Z,1012.91
2018-04-22T00:28:11.871Z,1012.89
2018-04-22T00:29:11.899Z,1012.89
2018-04-22T00:30:11.905Z,1012.87
2018-04-22T00:31:11.926Z,1012.91
2018-04-22T00:32:11.940Z,1012.87
2018-04-22T00:33:11.954Z,1012.85
2018-04-22T00:34:11.976Z,1012.86
2018-04-22T00:35:11.990Z,1012.85
2018-04-22T00:36:12.006Z,1012.79
2018-04-22T00:37:12.032Z,1012.79
2018-04-22T00:38:12.044Z,1012.77
2018-04-22T00:39:12.058Z,1012.74
2018-04-22T00:40:12.073Z,1012.77
2018-04-22T00:41:12.098Z,1012.70
2018-04-22T00:42:12.110Z,1012.70
2018-04-22T00:43:12.127Z,1012.66
2018-04-22T00:44:12.149Z,1012.64
2018-04-22T00:45:12.166Z,1012.62
2018-04-22T00:46:12.184Z,1012.63
2018-04-22T00:47:12.233Z,1012.57
2018-04-22T00:48:12.229Z,1012.61
2018-04-22T00:49:12.498Z,1012.57
2018-04-22T00:53:12.894Z,1012.47
2018-04-22T00:54:12.320Z,1012.48
2018-04-22T00:55:12.336Z,1012.47
2018-04-22T00:56:12.357Z,1012.43
2018-04-22T00:57:12.370Z,1012.44
2018-04-22T00:58:12.394Z,1012.44
2018-04-22T00:59:12.408Z,1012.38
2018-04-22T01:00:12.441Z,1012.39
2018-04-22T01:01:12.480Z,1012.38
2018-04-22T01:02:12.462Z,1012.35
2018-04-22T01:03:12.501Z,1012.33
2018-04-22T01:04:12.497Z,1012.33
2018-04-22T01:05:12.508Z,1012.29
2018-04-22T01:06:12.524Z,1012.28
2018-04-22T01:07:12.545Z,1012.27
2018-04-22T01:08:12.558Z,1012.25
2018-04-22T01:09:12.577Z,1012.26
2018-04-22T01:10:12.602Z,1012.28
2018-04-22T01:11:12.629Z,1012.22
2018-04-22T01:12:12.635Z,1012.20
2018-04-22T01:13:12.656Z,1012.16
2018-04-22T01:14:12.662Z,1012.14
2018-04-22T01:15:12.682Z,1012.15
2018-04-22T01:16:12.697Z,1012.12
2018-04-22T01:17:12.718Z,1012.06
2018-04-22T01:18:12.736Z,1012.05
2018-04-22T01:19:12.750Z,1012.06
2018-04-22T01:20:12.775Z,1012.03
2018-04-22T01:21:12.788Z,1012.03
2018-04-22T01:22:12.839Z,1012.03
2018-04-22T01:23:12.906Z,1012.02
2018-04-22T01:24:12.838Z,1012.02
2018-04-22T01:25:12.853Z,1012.05
2018-04-22T01:26:12.889Z,1012.01
2018-04-22T01:27:12.889Z,1012.03
2018-04-22T01:28:12.907Z,1012.02
2018-04-22T01:29:12.926Z,1012.04
2018-04-22T01:30:12.949Z,1012.06
2018-04-22T01:31:12.969Z,1012.10
2018-04-22T01:32:13.021Z,1012.06
2018-04-22T01:33:12.992Z,1012.06
2018-04-22T01:34:13.013Z,1011.99
2018-04-22T01:35:13.032Z,1011.99
2018-04-22T01:36:13.045Z,1012.00
2018-04-22T01:37:13.066Z,1012.00
2018-04-22T01:38:13.079Z,1012.02
2018-04-22T01:39:13.100Z,1011.99
2018-04-22T01:40:13.113Z,1012.01
2018-04-22T01:41:13.129Z,1012.01
2018-04-22T01:42:13.149Z,1011.99
2018-04-22T01:43:13.169Z,1012.05
2018-04-22T01:44:13.181Z,1012.00
2018-04-22T01:45:13.196Z,1011.98
2018-04-22T01:46:13.218Z,1011.95
2018-04-22T01:47:13.232Z,1011.98
2018-04-22T01:48:13.258Z,1011.97
2018-04-22T01:49:13.276Z,1011.89
2018-04-22T01:50:13.285Z,1011.89
2018-04-22T01:51:13.301Z,1011.91
2018-04-22T01:52:13.317Z,1011.88
2018-04-22T01:53:13.333Z,1011.89
2018-04-22T01:54:13.357Z,1011.82
2018-04-22T01:55:13.371Z,1011.82
2018-04-22T01:56:13.389Z,1011.82
2018-04-22T01:57:13.413Z,1011.79
2018-04-22T01:59:13.437Z,1011.72
2018-04-22T02:00:13.503Z,1011.74
2018-04-22T02:01:13.556Z,1011.74
2018-04-22T02:02:13.512Z,1011.67
2018-04-22T02:03:13.505Z,1011.68
2018-04-22T02:04:13.520Z,1011.68
2018-04-22T02:05:13.540Z,1011.67
2018-04-22T02:06:13.555Z,1011.64
2018-04-22T02:07:13.574Z,1011.64
2018-04-22T02:08:13.594Z,1011.61
2018-04-22T02:09:13.605Z,1011.62
2018-04-22T02:10:13.623Z,1011.61
2018-04-22T02:11:13.648Z,1011.63
2018-04-22T02:12:13.663Z,1011.64
2018-04-22T02:13:13.675Z,1011.60
2018-04-22T02:14:13.691Z,1011.61
2018-04-22T02:15:13.706Z,1011.58
2018-04-22T02:16:13.723Z,1011.59
2018-04-22T02:17:13.742Z,1011.58
2018-04-22T02:18:13.756Z,1011.57
2018-04-22T02:19:13.773Z,1011.55
2018-04-22T02:20:13.792Z,1011.58
2018-04-22T02:21:13.806Z,1011.56
2018-04-22T02:22:13.827Z,1011.58
2018-04-22T02:23:13.842Z,1011.58
2018-04-22T02:24:13.859Z,1011.57
2018-04-22T02:25:13.877Z,1011.57
2018-04-22T02:26:13.893Z,1011.53
2018-04-22T02:27:13.972Z,1011.53
2018-04-22T02:28:13.968Z,1011.48
2018-04-22T02:29:14.002Z,1011.47
2018-04-22T02:30:13.975Z,1011.43
2018-04-22T02:31:13.980Z,1011.39
2018-04-22T02:32:13.997Z,1011.41
2018-04-22T02:33:14.012Z,1011.42
2018-04-22T02:34:14.027Z,1011.38
2018-04-22T02:35:14.043Z,1011.37
2018-04-22T02:36:14.064Z,1011.32
2018-04-22T02:37:14.086Z,1011.30
2018-04-22T02:38:14.092Z,1011.29
2018-04-22T02:39:14.118Z,1011.29
2018-04-22T02:40:14.131Z,1011.30
2018-04-22T02:41:14.143Z,1011.31
2018-04-22T02:42:14.165Z,1011.32
2018-04-22T02:43:14.178Z,1011.30
2018-04-22T02:44:14.203Z,1011.28
2018-04-22T02:45:14.211Z,1011.28
2018-04-22T02:46:14.227Z,1011.25
2018-04-22T02:47:14.269Z,1011.22
2018-04-22T02:48:14.265Z,1011.21
2018-04-22T02:49:14.283Z,1011.20
2018-04-22T02:50:14.286Z,1011.21
2018-04-22T02:51:14.303Z,1011.18
2018-04-22T02:52:14.326Z,1011.15
2018-04-22T02:53:14.337Z,1011.15
2018-04-22T02:54:14.355Z,1011.11
2018-04-22T02:55:14.370Z,1011.09
2018-04-22T02:56:14.388Z,1011.10
2018-04-22T02:57:14.406Z,1011.09
2018-04-22T02:58:14.423Z,1011.08
2018-04-22T02:59:14.506Z,1011.08
2018-04-22T03:00:14.937Z,1011.03
2018-04-22T03:01:14.470Z,1011.05
2018-04-22T03:02:14.491Z,1011.04
2018-04-22T03:03:14.505Z,1010.97
2018-04-22T03:04:14.519Z,1010.97
2018-04-22T03:05:14.542Z,1010.96
2018-04-22T03:06:14.553Z,1010.91
2018-04-22T03:07:14.570Z,1010.89
2018-04-22T03:08:14.586Z,1010.86
2018-04-22T03:09:14.605Z,1010.86
2018-04-22T03:10:14.620Z,1010.88
2018-04-22T03:11:14.638Z,1010.87
2018-04-22T03:12:14.654Z,1010.90
2018-04-22T03:13:14.674Z,1010.92
2018-04-22T03:14:14.688Z,1010.90
2018-04-22T03:15:14.706Z,1010.89
2018-04-22T03:16:14.725Z,1010.89
2018-04-22T03:17:14.738Z,1010.89
2018-04-22T03:18:14.753Z,1010.91
2018-04-22T03:19:14.770Z,1010.87
2018-04-22T03:20:14.788Z,1010.86
2018-04-22T03:21:14.815Z,1010.88
2018-04-22T03:22:14.858Z,1010.88
2018-04-22T03:23:14.838Z,1010.87
2018-04-22T03:24:14.854Z,1010.83
2018-04-22T03:25:14.875Z,1010.82
2018-04-22T03:26:14.887Z,1010.80
2018-04-22T03:27:14.925Z,1010.77
2018-04-22T03:28:14.928Z,1010.77
2018-04-22T03:29:14.943Z,1010.79
2018-04-22T03:31:15.094Z,1010.75
2018-04-22T03:32:15.480Z,1010.74
2018-04-22T03:33:15.013Z,1010.74
2018-04-22T03:34:15.070Z,1010.70
2018-04-22T03:35:15.379Z,1010.63
2018-04-22T03:36:15.114Z,1010.60
2018-04-22T03:37:15.137Z,1010.60
2018-04-22T03:38:15.393Z,1010.58
2018-04-22T03:39:15.109Z,1010.55
2018-04-22T03:40:15.124Z,1010.49
2018-04-22T03:41:15.138Z,1010.50
2018-04-22T03:42:15.155Z,1010.46
2018-04-22T03:43:15.174Z,1010.44
2018-04-22T03:44:15.191Z,1010.49
2018-04-22T03:45:15.209Z,1010.48
2018-04-22T03:46:15.222Z,1010.44
2018-04-22T03:47:15.240Z,1010.45
2018-04-22T03:48:15.256Z,1010.51
2018-04-22T03:49:15.274Z,1010.49
2018-04-22T03:50:15.292Z,1010.52
2018-04-22T03:51:15.312Z,1010.55
2018-04-22T03:52:15.327Z,1010.56
2018-04-22T03:53:15.339Z,1010.52
2018-04-22T03:54:15.462Z,1010.53
2018-04-22T03:55:15.374Z,1010.52
2018-04-22T03:56:15.401Z,1010.55
2018-04-22T03:57:15.414Z,1010.50
2018-04-22T03:58:15.441Z,1010.47
2018-04-22T03:59:15.445Z,1010.45
2018-04-22T04:00:15.458Z,1010.48
2018-04-22T04:01:15.524Z,1010.47
2018-04-22T04:02:15.541Z,1010.48
2018-04-22T04:03:15.514Z,1010.44
2018-04-22T04:04:15.554Z,1010.44
2018-04-22T04:05:15.537Z,1010.40
2018-04-22T04:06:15.557Z,1010.41
2018-04-22T04:07:15.662Z,1010.42
2018-04-22T04:08:15.770Z,1010.42
2018-04-22T04:09:15.608Z,1010.45
2018-04-22T04:10:15.621Z,1010.46
2018-04-22T04:11:15.653Z,1010.47
2018-04-22T04:12:15.662Z,1010.49
2018-04-22T04:13:15.671Z,1010.51
2018-04-22T04:14:15.713Z,1010.49
2018-04-22T04:15:15.706Z,1010.47
2018-04-22T04:16:15.728Z,1010.41
2018-04-22T04:17:15.737Z,1010.38
2018-04-22T04:18:15.755Z,1010.31
2018-04-22T04:19:15.777Z,1010.30
2018-04-22T04:20:15.790Z,1010.19
2018-04-22T04:21:15.806Z,1010.18
2018-04-22T04:22:15.822Z,1010.19
2018-04-22T04:23:15.844Z,1010.14
2018-04-22T04:24:15.855Z,1010.11
2018-04-22T04:25:15.875Z,1010.12
2018-04-22T04:26:15.889Z,1010.11
2018-04-22T04:27:15.905Z,1010.11
2018-04-22T04:28:15.925Z,1010.13
2018-04-22T04:29:15.941Z,1010.10
2018-04-22T04:30:15.956Z,1010.13
2018-04-22T04:31:15.972Z,1010.15
2018-04-22T04:32:15.991Z,1010.14
2018-04-22T04:33:16.100Z,1010.10
2018-04-22T04:34:16.230Z,1010.07
2018-04-22T04:35:16.087Z,1010.05
2018-04-22T04:36:16.057Z,1010.06
2018-04-22T04:37:16.070Z,1010.09
2018-04-22T04:38:16.088Z,1010.04
2018-04-22T04:40:16.124Z,1010.05
2018-04-22T04:41:16.139Z,1010.02
2018-04-22T04:42:16.201Z,1010.02
2018-04-22T04:43:16.281Z,1009.99
2018-04-22T04:44:16.203Z,1010.01
2018-04-22T04:45:16.209Z,1009.99
2018-04-22T04:46:16.221Z,1009.99
2018-04-22T04:47:16.245Z,1010.01
2018-04-22T04:48:16.256Z,1009.98
2018-04-22T04:49:16.283Z,1010.07
2018-04-22T04:50:16.286Z,1010.02
2018-04-22T04:51:16.305Z,1009.98
2018-04-22T04:52:16.324Z,1009.96
2018-04-22T04:53:16.337Z,1010.01
2018-04-22T04:54:16.368Z,1009.96
2018-04-22T04:55:16.375Z,1009.94
2018-04-22T04:56:16.401Z,1009.91
2018-04-22T04:57:16.405Z,1009.91
2018-04-22T04:58:16.421Z,1009.93
2018-04-22T04:59:16.437Z,1009.89
2018-04-22T05:00:16.477Z,1009.90
2018-04-22T05:01:16.480Z,1009.91
2018-04-22T05:02:16.493Z,1009.87
2018-04-22T05:03:16.504Z,1009.89
2018-04-22T05:04:16.523Z,1009.93
2018-04-22T05:05:16.550Z,1009.92
2018-04-22T05:06:16.556Z,1009.91
2018-04-22T05:09:16.985Z,1009.85
2018-04-22T05:10:16.742Z,1009.84
2018-04-22T05:11:16.655Z,1009.81
2018-04-22T05:12:16.665Z,1009.84
2018-04-22T05:13:16.674Z,1009.85
2018-04-22T05:14:16.697Z,1009.85
2018-04-22T05:15:17.274Z,1009.84
2018-04-22T05:16:16.721Z,1009.82
2018-04-22T05:17:16.744Z,1009.84
2018-04-22T05:18:16.757Z,1009.80
2018-04-22T05:19:16.774Z,1009.80
2018-04-22T05:20:16.791Z,1009.78
2018-04-22T05:21:16.807Z,1009.79
2018-04-22T05:22:16.827Z,1009.78
2018-04-22T05:23:16.841Z,1009.78
2018-04-22T05:24:16.882Z,1009.76
2018-04-22T05:25:16.872Z,1009.75
2018-04-22T05:26:16.891Z,1009.76
2018-04-22T05:27:16.909Z,1009.74
2018-04-22T05:28:16.927Z,1009.73
2018-04-22T05:29:16.944Z,1009.75
2018-04-22T05:30:16.969Z,1009.74
2018-04-22T05:31:17.023Z,1009.74
2018-04-22T05:32:16.990Z,1009.76
2018-04-22T05:33:17.006Z,1009.70
2018-04-22T05:34:17.023Z,1009.70
2018-04-22T05:35:17.047Z,1009.73
2018-04-22T05:36:17.058Z,1009.69
2018-04-22T05:37:17.087Z,1009.70
2018-04-22T05:38:17.097Z,1009.70
2018-04-22T05:39:17.170Z,1009.74
2018-04-22T05:40:17.147Z,1009.76
2018-04-22T05:41:17.188Z,1009.75
2018-04-22T05:42:17.168Z,1009.73
2018-04-22T05:43:17.178Z,1009.71
2018-04-22T05:44:17.191Z,1009.70
2018-04-22T05:45:17.229Z,1009.69
2018-04-22T05:46:17.313Z,1009.72
2018-04-22T05:47:17.241Z,1009.70
2018-04-22T05:48:17.261Z,1009.71
2018-04-22T05:49:17.280Z,1009.67
2018-04-22T05:50:17.293Z,1009.62
2018-04-22T05:51:17.310Z,1009.61
2018-04-22T05:52:17.327Z,1009.57
2018-04-22T05:53:17.344Z,1009.53
2018-04-22T05:54:17.360Z,1009.51
2018-04-22T05:55:17.375Z,1009.49
2018-04-22T05:56:17.397Z,1009.48
2018-04-22T05:57:17.412Z,1009.53
2018-04-22T05:58:17.452Z,1009.47
2018-04-22T05:59:17.446Z,1009.48
2018-04-22T06:00:17.467Z,1009.48
2018-04-22T06:01:17.476Z,1009.44
2018-04-22T06:02:17.543Z,1009.48
2018-04-22T06:03:17.516Z,1009.47
2018-04-22T06:04:17.531Z,1009.44
2018-04-22T06:05:17.547Z,1009.48
2018-04-22T06:06:17.562Z,1009.46
2018-04-22T06:07:17.578Z,1009.46
2018-04-22T06:08:17.603Z,1009.41
2018-04-22T06:09:17.612Z,1009.42
2018-04-22T06:10:17.629Z,1009.41
2018-04-22T06:11:17.804Z,1009.40
2018-04-22T06:12:17.926Z,1009.42
2018-04-22T06:13:17.950Z,1009.45
2018-04-22T06:14:17.698Z,1009.41
2018-04-22T06:15:17.715Z,1009.41
2018-04-22T06:16:17.735Z,1009.46
2018-04-22T06:17:17.788Z,1009.42
2018-04-22T06:18:17.764Z,1009.37
2018-04-22T06:19:17.783Z,1009.41
2018-04-22T06:20:17.799Z,1009.42
2018-04-22T06:21:17.816Z,1009.40
2018-04-22T06:22:17.965Z,1009.39
2018-04-22T06:23:17.850Z,1009.38
2018-04-22T06:24:17.870Z,1009.32
2018-04-22T06:25:17.888Z,1009.32
2018-04-22T06:26:17.900Z,1009.31
2018-04-22T06:27:17.920Z,1009.24
2018-04-22T06:28:17.955Z,1009.19
2018-04-22T06:29:17.954Z,1009.23
2018-04-22T06:30:17.968Z,1009.21
2018-04-22T06:31:17.987Z,1009.20
2018-04-22T06:32:18.001Z,1009.13
2018-04-22T06:33:18.027Z,1009.14
2018-04-22T06:34:18.035Z,1009.15
2018-04-22T06:35:18.052Z,1009.11
2018-04-22T06:36:18.071Z,1009.07
2018-04-22T06:37:18.089Z,1009.08
2018-04-22T06:38:18.103Z,1009.08
2018-04-22T06:39:18.120Z,1009.02
2018-04-22T06:40:18.152Z,1009.05
2018-04-22T06:41:18.160Z,1009.00
2018-04-22T06:42:18.211Z,1008.99
2018-04-22T06:43:18.273Z,1008.98
2018-04-22T06:44:18.255Z,1008.95
2018-04-22T06:45:18.224Z,1008.94
2018-04-22T06:46:18.244Z,1008.93
2018-04-22T06:47:18.262Z,1008.89
2018-04-22T06:48:18.279Z,1008.88
2018-04-22T06:49:18.296Z,1008.87
2018-04-22T06:50:18.312Z,1008.85
2018-04-22T06:51:18.325Z,1008.85
2018-04-22T06:52:18.344Z,1008.86
2018-04-22T06:53:18.374Z,1008.84
2018-04-22T06:54:18.380Z,1008.83
2018-04-22T06:55:18.402Z,1008.81
2018-04-22T06:56:18.415Z,1008.84
2018-04-22T06:57:18.437Z,1008.79
2018-04-22T06:58:18.448Z,1008.79
2018-04-22T06:59:18.481Z,1008.84
2018-04-22T07:00:18.484Z,1008.80
2018-04-22T07:01:18.505Z,1008.77
2018-04-22T07:02:18.519Z,1008.78
2018-04-22T07:03:18.534Z,1008.72
2018-04-22T07:04:18.553Z,1008.73
2018-04-22T07:05:18.575Z,1008.72
2018-04-22T07:06:18.586Z,1008.73
2018-04-22T07:07:18.608Z,1008.79
2018-04-22T07:08:18.637Z,1008.76
2018-04-22T07:09:18.651Z,1008.79
2018-04-22T07:10:18.657Z,1008.81
2018-04-22T07:11:18.674Z,1008.82
2018-04-22T07:12:18.694Z,1008.80
2018-04-22T07:13:18.709Z,1008.77
2018-04-22T07:14:18.726Z,1008.78
2018-04-22T07:15:18.750Z,1008.78
2018-04-22T07:16:18.762Z,1008.78
2018-04-22T07:17:18.862Z,1008.78
2018-04-22T07:18:19.293Z,1008.76
2018-04-22T07:19:18.813Z,1008.80
2018-04-22T07:20:18.835Z,1008.80
2018-04-22T07:21:18.849Z,1008.80
2018-04-22T07:22:18.904Z,1008.77
2018-04-22T07:23:18.935Z,1008.77
2018-04-22T07:24:18.903Z,1008.75
2018-04-22T07:25:18.953Z,1008.75
2018-04-22T07:26:18.938Z,1008.76
2018-04-22T07:27:18.956Z,1008.72
2018-04-22T07:28:18.978Z,1008.69
2018-04-22T07:29:19.002Z,1008.71
2018-04-22T07:31:19.629Z,1008.70
2018-04-22T07:32:19.043Z,1008.69
2018-04-22T07:33:19.059Z,1008.66
2018-04-22T07:34:19.076Z,1008.60
2018-04-22T07:35:19.099Z,1008.66
2018-04-22T07:36:19.111Z,1008.62
2018-04-22T07:37:19.131Z,1008.60
2018-04-22T07:38:19.155Z,1008.59
2018-04-22T07:39:19.167Z,1008.64
2018-04-22T07:40:19.192Z,1008.59
2018-04-22T07:41:19.201Z,1008.60
2018-04-22T07:42:19.238Z,1008.66
2018-04-22T07:43:19.239Z,1008.66
2018-04-22T07:44:19.255Z,1008.65
2018-04-22T07:45:19.277Z,1008.58
2018-04-22T07:46:19.468Z,1008.66
2018-04-22T07:47:19.309Z,1008.61
2018-04-22T07:48:19.428Z,1008.61
2018-04-22T07:49:19.452Z,1008.60
2018-04-22T07:50:19.788Z,1008.58
2018-04-22T07:51:19.383Z,1008.66
2018-04-22T07:52:19.399Z,1008.60
2018-04-22T07:53:19.415Z,1008.65
2018-04-22T07:54:19.433Z,1008.65
2018-04-22T07:55:19.449Z,1008.64
2018-04-22T07:56:19.472Z,1008.66
2018-04-22T07:57:19.500Z,1008.63
2018-04-22T07:58:19.553Z,1008.59
2018-04-22T07:59:19.523Z,1008.62
2018-04-22T08:00:19.538Z,1008.63
2018-04-22T08:01:19.562Z,1008.66
2018-04-22T08:02:19.575Z,1008.64
2018-04-22T08:03:19.594Z,1008.67
2018-04-22T08:04:19.622Z,1008.64
2018-04-22T08:05:19.629Z,1008.62
2018-04-22T08:06:19.648Z,1008.61
2018-04-22T08:07:19.669Z,1008.60
2018-04-22T08:08:19.682Z,1008.57
2018-04-22T08:09:19.705Z,1008.59
2018-04-22T08:10:19.720Z,1008.61
2018-04-22T08:11:19.743Z,1008.64
2018-04-22T08:12:19.784Z,1008.65
2018-04-22T08:13:19.773Z,1008.60
2018-04-22T08:14:19.791Z,1008.59
2018-04-22T08:15:19.815Z,1008.62
2018-04-22T08:16:19.882Z,1008.59
2018-04-22T08:17:19.844Z,1008.54
2018-04-22T08:18:19.864Z,1008.50
2018-04-22T08:19:19.881Z,1008.48
2018-04-22T08:20:19.915Z,1008.46
2018-04-22T08:21:19.921Z,1008.51
2018-04-22T08:22:20.310Z,1008.49
2018-04-22T08:23:19.954Z,1008.47
2018-04-22T08:24:19.994Z,1008.45
2018-04-22T08:25:19.993Z,1008.49
2018-04-22T08:26:20.008Z,1008.48
2018-04-22T08:27:20.030Z,1008.45
2018-04-22T08:28:20.086Z,1008.45
2018-04-22T08:29:20.075Z,1008.45
2018-04-22T08:30:20.082Z,1008.45
2018-04-22T08:31:20.134Z,1008.39
2018-04-22T08:32:20.184Z,1008.45
2018-04-22T08:33:20.187Z,1008.41
2018-04-22T08:34:20.155Z,1008.39
2018-04-22T08:35:20.176Z,1008.38
2018-04-22T08:36:20.193Z,1008.34
2018-04-22T08:38:20.236Z,1008.34
2018-04-22T08:39:20.918Z,1008.34
2018-04-22T08:40:20.276Z,1008.34
2018-04-22T08:41:20.296Z,1008.33
2018-04-22T08:42:20.306Z,1008.31
2018-04-22T08:43:20.320Z,1008.33
2018-04-22T08:44:20.340Z,1008.32
2018-04-22T08:45:20.362Z,1008.32
2018-04-22T08:46:20.375Z,1008.35
2018-04-22T08:47:20.395Z,1008.31
2018-04-22T08:48:20.412Z,1008.25
2018-04-22T08:49:20.439Z,1008.28
2018-04-22T08:50:20.461Z,1008.30
2018-04-22T08:51:20.469Z,1008.33
2018-04-22T08:52:20.489Z,1008.36
2018-04-22T08:53:20.505Z,1008.36
2018-04-22T08:54:20.557Z,1008.35
2018-04-22T08:55:20.560Z,1008.30
2018-04-22T08:56:20.562Z,1008.29
2018-04-22T08:57:20.590Z,1008.25
2018-04-22T08:58:20.629Z,1008.23
2018-04-22T08:59:20.639Z,1008.24
2018-04-22T09:00:20.649Z,1008.23
2018-04-22T09:01:20.662Z,1008.24
2018-04-22T09:02:20.692Z,1008.16
2018-04-22T09:03:20.698Z,1008.18
2018-04-22T09:04:20.714Z,1008.21
2018-04-22T09:05:20.782Z,1008.16
2018-04-22T09:06:20.804Z,1008.15
2018-04-22T09:07:20.832Z,1008.17
2018-04-22T09:08:20.792Z,1008.17
2018-04-22T09:09:20.810Z,1008.19
2018-04-22T09:10:20.825Z,1008.17
2018-04-22T09:11:20.852Z,1008.17
2018-04-22T09:12:20.874Z,1008.12
2018-04-22T09:15:20.922Z,1008.03
2018-04-22T09:16:20.962Z,1008.07
2018-04-22T09:17:20.958Z,1008.04
2018-04-22T09:18:20.976Z,1008.00
2018-04-22T09:19:21.005Z,1007.96
2018-04-22T09:20:21.024Z,1007.93
2018-04-22T09:21:21.042Z,1007.95
2018-04-22T09:22:21.055Z,1007.94
2018-04-22T09:23:21.213Z,1007.92
2018-04-22T09:24:21.456Z,1007.92
2018-04-22T09:25:21.555Z,1007.92
2018-04-22T09:26:21.176Z,1007.91
2018-04-22T09:27:21.150Z,1007.87
2018-04-22T09:28:21.170Z,1007.86
2018-04-22T09:29:21.188Z,1007.90
2018-04-22T09:30:21.212Z,1007.91
2018-04-22T09:31:21.238Z,1007.94
2018-04-22T09:32:21.250Z,1007.95
2018-04-22T09:33:21.264Z,1007.90
2018-04-22T09:34:21.290Z,1007.89
2018-04-22T09:35:21.303Z,1007.88
2018-04-22T09:36:21.337Z,1007.91
2018-04-22T09:37:21.807Z,1007.96
2018-04-22T09:38:21.451Z,1007.93
2018-04-22T09:39:21.406Z,1007.96
2018-04-22T09:40:21.408Z,1007.98
2018-04-22T09:41:21.427Z,1007.93
2018-04-22T09:42:21.444Z,1007.97
2018-04-22T09:43:21.480Z,1007.96
2018-04-22T09:44:21.481Z,1007.89
2018-04-22T09:45:21.499Z,1007.86
2018-04-22T09:46:21.518Z,1007.88
2018-04-22T09:47:21.647Z,1007.86
2018-04-22T09:48:21.622Z,1007.85
2018-04-22T09:49:21.576Z,1007.82
2018-04-22T09:50:21.598Z,1007.80
2018-04-22T09:51:21.619Z,1007.78
2018-04-22T09:52:21.636Z,1007.77
2018-04-22T09:53:21.687Z,1007.76
2018-04-22T09:54:21.675Z,1007.79
2018-04-22T09:55:21.706Z,1007.75
2018-04-22T09:56:21.742Z,1007.75
2018-04-22T09:58:21.746Z,1007.74
2018-04-22T09:59:21.846Z,1007.76
2018-04-22T10:00:21.787Z,1007.74
2018-04-22T10:01:21.806Z,1007.71
2018-04-22T10:02:21.830Z,1007.69
2018-04-22T10:03:21.849Z,1007.63
2018-04-22T10:04:21.866Z,1007.67
2018-04-22T10:05:21.892Z,1007.63
2018-04-22T10:06:21.921Z,1007.66
2018-04-22T10:07:21.946Z,1007.63
2018-04-22T10:08:21.955Z,1007.64
2018-04-22T10:09:21.963Z,1007.61
2018-04-22T10:10:21.986Z,1007.60
2018-04-22T10:11:22.073Z,1007.62
2018-04-22T10:12:22.033Z,1007.65
2018-04-22T10:13:22.047Z,1007.63
2018-04-22T10:14:22.064Z,1007.60
2018-04-22T10:15:22.085Z,1007.60
2018-04-22T10:16:22.109Z,1007.61
2018-04-22T10:17:22.141Z,1007.58
2018-04-22T10:18:22.149Z,1007.58
2018-04-22T10:19:22.166Z,1007.55
2018-04-22T10:20:22.187Z,1007.49
2018-04-22T10:21:22.206Z,1007.54
2018-04-22T10:22:22.329Z,1007.56
2018-04-22T10:23:22.247Z,1007.57
2018-04-22T10:24:22.268Z,1007.55
2018-04-22T10:25:22.285Z,1007.50
2018-04-22T10:26:22.310Z,1007.52
2018-04-22T10:27:22.335Z,1007.47
2018-04-22T10:28:22.346Z,1007.44
2018-04-22T10:29:22.367Z,1007.43
2018-04-22T10:30:22.417Z,1007.43
2018-04-22T10:31:22.408Z,1007.41
2018-04-22T10:32:22.430Z,1007.40
2018-04-22T10:33:22.509Z,1007.41
2018-04-22T10:34:22.772Z,1007.38
2018-04-22T10:35:22.497Z,1007.32
2018-04-22T10:36:22.515Z,1007.31
2018-04-22T10:37:22.536Z,1007.31
2018-04-22T10:38:22.552Z,1007.28
2018-04-22T10:39:22.578Z,1007.29
2018-04-22T10:40:22.592Z,1007.33
2018-04-22T10:41:22.615Z,1007.28
2018-04-22T10:42:22.651Z,1007.28
2018-04-22T10:43:22.654Z,1007.25
2018-04-22T10:44:22.681Z,1007.20
2018-04-22T10:45:22.697Z,1007.19
2018-04-22T10:46:22.732Z,1007.18
2018-04-22T10:47:22.754Z,1007.17
2018-04-22T10:48:22.756Z,1007.11
2018-04-22T10:49:22.840Z,1007.14
2018-04-22T10:50:22.802Z,1007.13
2018-04-22T10:51:22.828Z,1007.18
2018-04-22T10:52:22.841Z,1007.16
2018-04-22T10:53:22.906Z,1007.19
2018-04-22T10:54:23.046Z,1007.15
2018-04-22T10:55:22.907Z,1007.17
2018-04-22T10:56:23.244Z,1007.16
2018-04-22T10:57:23.215Z,1007.13
2018-04-22T10:59:22.989Z,1007.19
2018-04-22T11:00:23.037Z,1007.12
2018-04-22T11:01:23.030Z,1007.12
2018-04-22T11:02:23.047Z,1007.14
2018-04-22T11:03:23.071Z,1007.12
2018-04-22T11:04:23.094Z,1007.14
2018-04-22T11:05:23.182Z,1007.09
2018-04-22T11:06:23.153Z,1007.10
2018-04-22T11:07:23.205Z,1007.09
2018-04-22T11:08:23.176Z,1007.06
2018-04-22T11:09:23.195Z,1007.03
2018-04-22T11:10:23.217Z,1007.05
2018-04-22T11:11:23.243Z,1007.05
2018-04-22T11:12:23.266Z,1007.05
2018-04-22T11:13:23.280Z,1006.99
2018-04-22T11:14:23.319Z,1006.98
2018-04-22T11:15:23.324Z,1006.95
2018-04-22T11:16:23.345Z,1006.99
2018-04-22T11:17:23.363Z,1006.99
2018-04-22T11:18:23.387Z,1006.96
2018-04-22T11:19:23.407Z,1006.97
2018-04-22T11:20:23.437Z,1007.05
2018-04-22T11:21:23.754Z,1007.03
2018-04-22T11:22:23.478Z,1007.05
2018-04-22T11:23:23.491Z,1007.02
2018-04-22T11:24:23.521Z,1007.00
2018-04-22T11:25:23.536Z,1006.99
2018-04-22T11:26:23.560Z,1007.07
2018-04-22T11:27:23.600Z,1007.01
2018-04-22T11:28:23.603Z,1007.02
2018-04-22T11:29:23.727Z,1007.04
2018-04-22T11:30:23.643Z,1007.03
2018-04-22T11:32:23.685Z,1006.98
2018-04-22T11:33:23.706Z,1006.99
2018-04-22T11:34:23.732Z,1007.00
2018-04-22T11:35:23.753Z,1006.98
2018-04-22T11:36:23.771Z,1006.97
2018-04-22T11:37:23.809Z,1006.94
2018-04-22T11:38:23.814Z,1006.90
2018-04-22T11:39:23.864Z,1006.89
2018-04-22T11:40:23.858Z,1006.89
2018-04-22T11:41:23.880Z,1006.84
2018-04-22T11:42:23.906Z,1006.88
2018-04-22T11:43:23.928Z,1006.88
2018-04-22T11:44:23.944Z,1006.91
2018-04-22T11:45:23.967Z,1006.90
2018-04-22T11:46:23.989Z,1006.85
2018-04-22T11:47:24.012Z,1006.85
2018-04-22T11:48:24.035Z,1006.77
2018-04-22T11:49:24.058Z,1006.75
2018-04-22T11:50:24.085Z,1006.69
2018-04-22T11:52:24.121Z,1006.67
2018-04-22T11:53:24.154Z,1006.70
2018-04-22T11:54:24.174Z,1006.70
2018-04-22T11:55:24.197Z,1006.67
2018-04-22T11:56:24.216Z,1006.70
2018-04-22T11:57:24.232Z,1006.70
2018-04-22T11:58:24.260Z,1006.66
2018-04-22T11:59:24.282Z,1006.70
2018-04-22T12:00:24.308Z,1006.67
2018-04-22T12:01:24.329Z,1006.68
2018-04-22T12:02:24.369Z,1006.62
2018-04-22T12:03:24.372Z,1006.62
2018-04-22T12:04:24.388Z,1006.55
2018-04-22T12:05:24.410Z,1006.58
2018-04-22T12:06:24.432Z,1006.62
2018-04-22T12:07:24.522Z,1006.61
2018-04-22T12:08:24.507Z,1006.58
2018-04-22T12:09:24.503Z,1006.56
2018-04-22T12:10:24.547Z,1006.55
2018-04-22T12:11:24.549Z,1006.57
2018-04-22T12:12:24.566Z,1006.56
2018-04-22T12:13:24.591Z,1006.55
2018-04-22T12:14:24.613Z,1006.48
2018-04-22T12:15:24.634Z,1006.47
2018-04-22T12:16:24.656Z,1006.47
2018-04-22T12:17:24.681Z,1006.52
2018-04-22T12:18:24.701Z,1006.46
2018-04-22T12:19:24.723Z,1006.44
2018-04-22T12:20:24.761Z,1006.48
2018-04-22T12:21:24.767Z,1006.45
2018-04-22T12:22:24.791Z,1006.42